Bear River, Wyoming
Current Conditions -  °F | °C
As of 6:53 PM on Saturday 20 Dec 2014 (Local Time) from KEVW Reporting Station
Overcast Overcast  
Wind Chill: 21°   Ceiling: 3700
Heat Index: 30°   Visibility: 10mi
Dew Point: 29°   Wind: 12mph
Humidity: 96%   Direction: 220°SW
Pressure: 30.02"   Gusts: NA
Location:  41.2776°N, 110.814°W
Report Text: KEVW 210153Z AUTO 22010KT 10SM FEW028 OVC037 M01/M02 A3002 RMK AO2 SLP170 T10111017
Loading
Personal Weather Stations






























Interactive Weather Map New forecast layout! Learn more

10-Day Weather Forecast

Advertisements
Track Severe Weather on mobile